Time;durP1;ratioP1;P1;durP2;ratioP2;P2;SDS_P1;SDS_P2;PMS_P1;PMS_P2;Temp;Humidity;BMP_temperature;BMP_pressure;BME280_temperature;BME280_humidity;BME280_pressure;Samples;Min_cycle;Max_cycle;Signal;HPM_P1;HPM_P2
2022/03/20 00:00:30;;;;;;;20.00;16.83;;;5.00;99.90;;;;;;5047589;28;20234;-64
2022/03/20 00:02:56;;;;;;;20.77;17.23;;;5.00;99.90;;;;;;5067595;28;20193;-63
2022/03/20 00:05:22;;;;;;;20.33;17.50;;;5.00;99.90;;;;;;5067000;28;20680;-63
2022/03/20 00:07:48;;;;;;;20.83;17.13;;;4.90;99.90;;;;;;5047251;28;20203;-63
2022/03/20 00:10:14;;;;;;;19.07;16.67;;;4.80;99.90;;;;;;5047139;28;20171;-62
2022/03/20 00:12:41;;;;;;;21.07;18.30;;;4.80;99.90;;;;;;5061295;28;20210;-63
2022/03/20 00:15:07;;;;;;;22.30;17.67;;;4.70;99.90;;;;;;5051902;28;20191;-63
2022/03/20 00:17:33;;;;;;;20.27;18.10;;;4.70;99.90;;;;;;5034823;28;20481;-63
2022/03/20 00:19:59;;;;;;;22.27;17.80;;;4.70;99.90;;;;;;5032139;28;20182;-64
2022/03/20 00:22:25;;;;;;;20.90;17.17;;;4.70;99.90;;;;;;5062072;28;20183;-64
2022/03/20 00:24:51;;;;;;;20.40;16.87;;;4.80;99.90;;;;;;5039601;28;20207;-63
2022/03/20 00:27:17;;;;;;;19.33;16.33;;;4.80;99.90;;;;;;5031966;28;20702;-63
2022/03/20 00:29:43;;;;;;;22.47;18.43;;;4.80;99.90;;;;;;5041382;28;20194;-63
2022/03/20 00:32:12;;;;;;;21.67;17.80;;;4.80;99.90;;;;;;5051321;28;20226;-64
2022/03/20 00:34:39;;;;;;;19.10;16.90;;;4.80;99.90;;;;;;5042228;28;20225;-63
2022/03/20 00:37:06;;;;;;;26.37;19.03;;;4.70;99.90;;;;;;5031100;28;20176;-64
2022/03/20 00:39:32;;;;;;;23.10;18.23;;;4.70;99.90;;;;;;5036397;28;20174;-64
2022/03/20 00:41:57;;;;;;;20.73;17.10;;;4.70;99.90;;;;;;5050805;28;20228;-64
2022/03/20 00:44:23;;;;;;;22.73;18.10;;;4.70;99.90;;;;;;5045555;28;20670;-64
2022/03/20 00:46:49;;;;;;;19.73;17.63;;;4.70;99.90;;;;;;5031311;28;20184;-64
2022/03/20 00:49:16;;;;;;;20.97;18.40;;;4.70;99.90;;;;;;5034340;28;20729;-63
2022/03/20 00:51:43;;;;;;;24.70;19.80;;;4.70;99.90;;;;;;5051722;28;20202;-64
2022/03/20 00:54:10;;;;;;;20.93;17.53;;;4.60;99.90;;;;;;5048612;28;20211;-64
2022/03/20 00:56:36;;;;;;;20.67;18.13;;;4.60;99.90;;;;;;5031150;28;20180;-64
2022/03/20 00:59:03;;;;;;;19.37;17.33;;;4.60;99.90;;;;;;5031481;28;20179;-64
2022/03/20 01:01:29;;;;;;;22.53;18.77;;;4.50;99.90;;;;;;5050439;28;20187;-63
2022/03/20 01:03:55;;;;;;;20.57;18.20;;;4.50;99.90;;;;;;5050744;28;20233;-63
2022/03/20 01:06:22;;;;;;;22.80;18.10;;;4.50;99.90;;;;;;5050466;28;20194;-62
2022/03/20 01:08:52;;;;;;;22.90;18.17;;;4.30;99.90;;;;;;5051122;28;20171;-64
2022/03/20 01:11:18;;;;;;;22.70;18.60;;;4.20;99.90;;;;;;5032413;28;20279;-64
2022/03/20 01:13:44;;;;;;;20.17;17.97;;;4.20;99.90;;;;;;5032116;28;20191;-63
2022/03/20 01:16:09;;;;;;;22.43;18.20;;;4.10;99.90;;;;;;5047243;28;20182;-64
2022/03/20 01:18:35;;;;;;;20.53;18.03;;;4.00;99.90;;;;;;5035640;28;20180;-63
2022/03/20 01:21:02;;;;;;;24.27;17.80;;;4.00;99.90;;;;;;5054601;28;20201;-63
2022/03/20 01:23:28;;;;;;;22.97;18.03;;;4.00;99.90;;;;;;5041859;28;20674;-63
2022/03/20 01:25:54;;;;;;;26.87;18.60;;;4.00;99.90;;;;;;5034861;28;20171;-63
2022/03/20 01:28:20;;;;;;;21.50;17.97;;;4.00;99.90;;;;;;5044918;28;20294;-63
2022/03/20 01:30:47;;;;;;;23.00;18.30;;;4.00;99.90;;;;;;5054841;28;20179;-64
2022/03/20 01:33:14;;;;;;;21.07;17.70;;;4.00;99.90;;;;;;5052983;28;20309;-63
2022/03/20 01:35:40;;;;;;;20.83;18.03;;;4.00;99.90;;;;;;5052289;28;20220;-63
2022/03/20 01:38:06;;;;;;;20.37;18.37;;;4.10;99.90;;;;;;5049751;28;20558;-63
2022/03/20 01:40:32;;;;;;;23.10;18.37;;;4.10;99.90;;;;;;5043425;28;20175;-63
2022/03/20 01:42:58;;;;;;;23.03;17.63;;;4.20;99.90;;;;;;5034702;28;20182;-64
2022/03/20 01:45:24;;;;;;;21.63;18.33;;;4.20;99.90;;;;;;5035068;28;20573;-63
2022/03/20 01:47:51;;;;;;;20.60;18.50;;;4.30;99.90;;;;;;5034819;28;20576;-63
2022/03/20 01:50:19;;;;;;;18.53;16.53;;;4.30;99.90;;;;;;5037141;28;20262;-63
2022/03/20 01:52:46;;;;;;;22.77;17.20;;;4.40;99.90;;;;;;5054419;28;20577;-63
2022/03/20 01:55:13;;;;;;;20.93;17.87;;;4.50;99.90;;;;;;5040143;28;20268;-63
2022/03/20 01:57:39;;;;;;;27.57;17.63;;;4.60;99.90;;;;;;5049367;28;20669;-63
2022/03/20 02:00:09;;;;;;;21.73;17.40;;;4.60;99.90;;;;;;5065619;28;20171;-63
2022/03/20 02:02:35;;;;;;;21.30;16.77;;;4.70;99.90;;;;;;5072275;28;20179;-62
2022/03/20 02:05:01;;;;;;;21.80;17.63;;;4.70;99.90;;;;;;5043358;28;20215;-63
2022/03/20 02:07:28;;;;;;;20.40;17.17;;;4.70;99.90;;;;;;5034336;28;20184;-63
2022/03/20 02:09:54;;;;;;;25.73;16.83;;;4.60;99.90;;;;;;5043501;28;20194;-63
2022/03/20 02:12:20;;;;;;;19.27;17.23;;;4.60;99.90;;;;;;5053818;28;20202;-63
2022/03/20 02:14:46;;;;;;;23.57;19.07;;;4.50;99.90;;;;;;5045975;28;20674;-63
2022/03/20 02:17:12;;;;;;;21.83;18.73;;;4.50;99.90;;;;;;5033704;28;20217;-63
2022/03/20 02:19:39;;;;;;;22.13;17.63;;;4.40;99.90;;;;;;5045852;28;20241;-63
2022/03/20 02:22:05;;;;;;;24.90;17.37;;;4.30;99.90;;;;;;5053947;28;20229;-64
2022/03/20 02:24:48;;;;;;;19.33;17.20;;;4.30;99.90;;;;;;5040624;28;20286;-63
2022/03/20 02:27:19;;;;;;;24.00;16.37;;;4.30;99.90;;;;;;5033733;28;20225;-63
2022/03/20 02:29:52;;;;;;;20.03;17.23;;;4.30;99.90;;;;;;5045600;28;20195;-63
2022/03/20 02:32:21;;;;;;;23.70;17.03;;;4.30;99.90;;;;;;5053909;28;20752;-63
2022/03/20 02:34:47;;;;;;;21.30;16.80;;;4.40;99.90;;;;;;5039935;28;20208;-63
2022/03/20 02:37:14;;;;;;;19.50;17.27;;;4.40;99.90;;;;;;5033513;28;20639;-63
2022/03/20 02:39:39;;;;;;;19.23;17.27;;;4.40;99.90;;;;;;5032163;28;20226;-63
2022/03/20 02:42:07;;;;;;;19.50;17.40;;;4.50;99.90;;;;;;5033578;28;20179;-63
2022/03/20 02:45:05;;;;;;;19.47;17.57;;;4.50;99.90;;;;;;5041967;28;20202;-63
2022/03/20 02:47:33;;;;;;;20.17;16.97;;;4.50;99.90;;;;;;5043369;28;20202;-63
2022/03/20 02:50:04;;;;;;;20.67;16.93;;;4.40;99.90;;;;;;5032601;28;20597;-63
2022/03/20 02:52:52;;;;;;;20.13;17.53;;;4.40;99.90;;;;;;5042001;28;20203;-63
2022/03/20 02:55:19;;;;;;;21.70;19.00;;;4.40;99.90;;;;;;5051404;28;20717;-62
2022/03/20 02:57:47;;;;;;;23.73;17.80;;;4.40;99.90;;;;;;5033131;28;20627;-63
2022/03/20 03:00:14;;;;;;;18.70;15.87;;;4.50;99.90;;;;;;5031751;28;20198;-63
2022/03/20 03:02:45;;;;;;;21.03;17.10;;;4.50;99.90;;;;;;5032498;28;20168;-64
2022/03/20 03:05:12;;;;;;;22.40;17.67;;;4.50;99.90;;;;;;5052670;28;20187;-63
2022/03/20 03:10:55;;;;;;;18.47;16.50;;;4.60;99.90;;;;;;5052950;28;20297;-63
2022/03/20 03:13:09;;;;;;;20.13;17.17;;;4.40;99.90;;;;;;5031743;28;20210;-63
2022/03/20 03:15:34;;;;;;;25.70;18.80;;;4.40;99.90;;;;;;5032617;28;20246;-68
2022/03/20 03:18:00;;;;;;;19.53;16.70;;;4.30;99.90;;;;;;5041633;28;20273;-69
2022/03/20 03:20:27;;;;;;;18.53;16.53;;;4.30;99.90;;;;;;5053688;28;20245;-66
2022/03/20 03:22:52;;;;;;;20.50;17.63;;;4.20;99.90;;;;;;5052194;28;20220;-70
2022/03/20 03:25:18;;;;;;;20.57;17.90;;;4.20;99.90;;;;;;5053069;28;20227;-67
2022/03/20 03:27:44;;;;;;;23.80;17.30;;;4.10;99.90;;;;;;5048652;28;20190;-66
2022/03/20 03:30:12;;;;;;;22.53;16.90;;;4.10;99.90;;;;;;5033735;28;20185;-69
2022/03/20 03:32:40;;;;;;;21.17;17.30;;;4.10;99.90;;;;;;5034714;28;20214;-68
2022/03/20 03:37:53;;;;;;;20.07;17.17;;;4.00;99.90;;;;;;5048488;28;20182;-68
2022/03/20 03:40:18;;;;;;;21.67;17.50;;;3.90;99.90;;;;;;5033512;28;20642;-68
2022/03/20 03:42:44;;;;;;;20.27;17.00;;;3.90;99.90;;;;;;5035544;28;20219;-67
2022/03/20 03:45:10;;;;;;;22.73;17.90;;;3.80;99.90;;;;;;5052823;28;20213;-68
2022/03/20 03:47:36;;;;;;;22.20;17.67;;;3.70;99.90;;;;;;5051915;28;20175;-68
2022/03/20 03:50:02;;;;;;;21.40;17.47;;;3.70;99.90;;;;;;5033489;28;20187;-67
2022/03/20 03:52:27;;;;;;;24.57;17.60;;;3.60;99.90;;;;;;5033255;28;20700;-68
2022/03/20 03:54:53;;;;;;;23.13;17.90;;;3.50;99.90;;;;;;5083391;23;20263;-66
2022/03/20 03:57:19;;;;;;;20.57;17.93;;;3.40;99.90;;;;;;5070331;28;20182;-65
2022/03/20 03:59:46;;;;;;;21.27;19.00;;;3.20;99.90;;;;;;5071218;28;20201;-64
2022/03/20 04:02:12;;;;;;;23.00;18.63;;;3.20;99.90;;;;;;5071787;28;20177;-66
2022/03/20 04:04:38;;;;;;;23.63;19.47;;;3.20;99.90;;;;;;5054824;28;20688;-65
2022/03/20 04:07:04;;;;;;;20.23;17.97;;;3.20;99.90;;;;;;5052106;28;20206;-65
2022/03/20 04:09:30;;;;;;;23.40;19.17;;;3.20;99.90;;;;;;5051456;28;20237;-65
2022/03/20 04:11:57;;;;;;;21.60;17.63;;;3.30;99.90;;;;;;5062719;28;20763;-65
2022/03/20 04:14:23;;;;;;;24.07;17.90;;;3.30;99.90;;;;;;5071559;28;20285;-65
2022/03/20 04:16:49;;;;;;;25.63;18.40;;;3.40;99.90;;;;;;5061851;28;20616;-65
2022/03/20 04:19:15;;;;;;;23.40;19.07;;;3.40;99.90;;;;;;5051600;28;20163;-65
2022/03/20 04:21:41;;;;;;;21.97;18.10;;;3.40;99.90;;;;;;5058953;28;20222;-64
2022/03/20 04:24:07;;;;;;;20.70;17.83;;;3.40;99.90;;;;;;5071657;28;20200;-65
2022/03/20 04:26:34;;;;;;;20.53;18.20;;;3.40;99.90;;;;;;5065359;28;20194;-64
2022/03/20 04:29:00;;;;;;;21.97;18.77;;;3.40;99.90;;;;;;5051581;28;20205;-65
2022/03/20 04:31:26;;;;;;;20.87;18.17;;;3.50;99.90;;;;;;5055096;28;20573;-66
2022/03/20 04:33:53;;;;;;;22.97;18.70;;;3.50;99.90;;;;;;5069875;28;20169;-66
2022/03/20 04:36:23;;;;;;;21.23;18.23;;;3.50;99.90;;;;;;5051239;28;20551;-64
2022/03/20 04:38:54;;;;;;;22.70;18.23;;;3.50;99.90;;;;;;5051361;28;20174;-63
2022/03/20 04:41:21;;;;;;;21.40;17.73;;;3.40;99.90;;;;;;5052242;28;20249;-66
2022/03/20 04:43:48;;;;;;;20.30;17.93;;;3.40;99.90;;;;;;5050949;28;20743;-64
2022/03/20 04:46:14;;;;;;;25.33;18.70;;;3.40;99.90;;;;;;5070176;28;20166;-64
2022/03/20 04:59:36;;;;;;;21.53;17.97;;;3.40;99.90;;;;;;5070762;28;20201;-64
2022/03/20 05:02:02;;;;;;;21.43;18.17;;;3.40;99.90;;;;;;5056258;28;20175;-64
2022/03/20 05:04:28;;;;;;;25.37;18.60;;;3.40;99.90;;;;;;5074752;28;20194;-66
2022/03/20 05:06:53;;;;;;;24.90;18.53;;;3.40;99.90;;;;;;5075031;28;20176;-64
2022/03/20 05:14:48;;;;;;;28.07;19.47;;;3.60;99.90;;;;;;5054629;28;20365;-65
2022/03/20 05:17:13;;;;;;;27.70;19.43;;;3.60;99.90;;;;;;5064331;28;20673;-63
2022/03/20 05:19:43;;;;;;;22.10;18.27;;;3.60;99.90;;;;;;5074566;28;20245;-65
2022/03/20 05:22:10;;;;;;;23.17;18.40;;;3.60;99.90;;;;;;5065653;28;20638;-65
2022/03/20 05:24:37;;;;;;;21.83;17.90;;;3.70;99.90;;;;;;5053073;28;20206;-64
2022/03/20 05:27:04;;;;;;;20.87;18.50;;;3.70;99.90;;;;;;5061362;28;20640;-64
2022/03/20 05:29:30;;;;;;;24.80;19.20;;;3.80;99.90;;;;;;5074412;28;20684;-65
2022/03/20 05:31:56;;;;;;;32.43;20.37;;;3.90;99.90;;;;;;5059633;28;20210;-63
2022/03/20 05:34:22;;;;;;;19.97;17.37;;;4.00;99.90;;;;;;5054611;28;20194;-64
2022/03/20 05:36:49;;;;;;;23.83;20.20;;;4.10;99.90;;;;;;5067190;28;20178;-65
2022/03/20 05:39:15;;;;;;;22.73;19.03;;;4.30;99.90;;;;;;5074384;28;20166;-65
2022/03/20 05:41:46;;;;;;;23.17;18.97;;;4.30;99.90;;;;;;5062266;28;20183;-65
2022/03/20 05:44:12;;;;;;;21.50;18.77;;;4.40;99.90;;;;;;5053006;28;20194;-64
2022/03/20 05:46:39;;;;;;;25.23;18.80;;;4.50;99.90;;;;;;5064493;28;20178;-65
2022/03/20 05:49:05;;;;;;;25.33;19.90;;;4.60;99.90;;;;;;5074165;28;20197;-66
2022/03/20 05:51:31;;;;;;;23.57;19.13;;;4.60;99.90;;;;;;5064680;28;20186;-65
2022/03/20 05:53:57;;;;;;;23.33;19.20;;;4.70;99.90;;;;;;5054036;28;20249;-65
2022/03/20 05:59:08;;;;;;;27.97;19.70;;;4.70;99.90;;;;;;5067213;28;20197;-65
2022/03/20 06:01:33;;;;;;;25.47;19.63;;;4.80;99.90;;;;;;5054099;28;20171;-66
2022/03/20 06:04:00;;;;;;;21.33;18.67;;;4.80;99.90;;;;;;5058918;28;20225;-65
2022/03/20 06:06:26;;;;;;;24.40;19.10;;;4.90;99.90;;;;;;5073909;28;20162;-65
2022/03/20 06:08:52;;;;;;;23.07;18.10;;;5.00;99.90;;;;;;5072066;28;20228;-65
2022/03/20 06:11:17;;;;;;;24.67;19.83;;;5.10;99.90;;;;;;5073623;28;20595;-65
2022/03/20 06:13:45;;;;;;;26.00;18.50;;;5.20;99.90;;;;;;5078809;28;20171;-66
2022/03/20 06:16:12;;;;;;;25.83;19.53;;;5.30;99.90;;;;;;5080388;28;20166;-66
2022/03/20 06:18:42;;;;;;;21.80;19.30;;;5.40;99.90;;;;;;5079102;28;20236;-64
2022/03/20 06:21:09;;;;;;;22.70;19.23;;;5.50;99.90;;;;;;5054315;28;20190;-65
2022/03/20 06:23:35;;;;;;;24.50;19.77;;;5.60;99.90;;;;;;5053577;28;20167;-65
2022/03/20 06:26:01;;;;;;;25.73;19.77;;;5.60;99.90;;;;;;5053384;28;20210;-64
2022/03/20 06:28:26;;;;;;;24.27;19.10;;;5.70;99.90;;;;;;5069414;28;20284;-65
2022/03/20 06:30:52;;;;;;;24.33;19.43;;;5.70;99.90;;;;;;5073850;28;20181;-65
2022/03/20 06:33:18;;;;;;;26.67;19.97;;;5.80;99.90;;;;;;5059395;28;20202;-65
2022/03/20 06:35:44;;;;;;;23.83;19.13;;;5.70;99.90;;;;;;5052110;28;20191;-65
2022/03/20 06:38:09;;;;;;;23.10;19.83;;;5.80;99.90;;;;;;5065645;28;20170;-65
2022/03/20 06:40:35;;;;;;;27.30;20.93;;;5.80;99.90;;;;;;5073882;28;20224;-65
2022/03/20 06:43:01;;;;;;;23.30;19.33;;;5.80;99.90;;;;;;5062494;28;20182;-65
2022/03/20 06:45:27;;;;;;;27.13;20.20;;;5.80;99.90;;;;;;5053069;28;20201;-65
2022/03/20 06:47:52;;;;;;;23.03;19.47;;;5.80;99.90;;;;;;5061161;28;20208;-66
2022/03/20 06:50:18;;;;;;;23.97;17.97;;;5.90;99.90;;;;;;5073552;28;20686;-65
2022/03/20 06:52:44;;;;;;;26.07;18.77;;;6.00;99.90;;;;;;5065039;28;20641;-65
2022/03/20 06:55:16;;;;;;;26.33;20.13;;;6.10;99.90;;;;;;5056574;28;20201;-65
2022/03/20 06:57:43;;;;;;;24.60;19.70;;;6.20;99.90;;;;;;5071061;28;20183;-65
2022/03/20 07:00:10;;;;;;;26.80;20.73;;;6.40;99.90;;;;;;5053128;28;20167;-66
2022/03/20 07:02:35;;;;;;;23.87;18.20;;;6.50;99.90;;;;;;5051482;28;20206;-64
2022/03/20 07:05:01;;;;;;;24.70;19.83;;;6.70;99.90;;;;;;5072146;28;20224;-65
2022/03/20 07:07:27;;;;;;;23.97;19.40;;;6.90;99.90;;;;;;5072687;28;20177;-66
2022/03/20 07:09:53;;;;;;;23.13;20.43;;;7.20;99.90;;;;;;5054371;28;20186;-66
2022/03/20 07:12:19;;;;;;;26.60;20.37;;;7.30;99.90;;;;;;5052355;28;20234;-65
2022/03/20 07:14:45;;;;;;;24.20;17.13;;;7.60;99.90;;;;;;5068317;28;20245;-65
2022/03/20 07:17:16;;;;;;;23.83;19.20;;;7.60;99.90;;;;;;5061064;28;20658;-66
2022/03/20 07:19:43;;;;;;;26.60;19.00;;;7.60;99.90;;;;;;5058864;28;20182;-65
2022/03/20 07:22:10;;;;;;;27.53;19.37;;;7.50;99.90;;;;;;5067146;28;20185;-66
2022/03/20 07:24:39;;;;;;;25.90;18.90;;;7.40;99.90;;;;;;5050654;28;20604;-65
2022/03/20 07:29:50;;;;;;;27.07;20.03;;;7.10;99.90;;;;;;5072175;28;20297;-65
2022/03/20 07:32:16;;;;;;;24.53;19.90;;;7.20;99.90;;;;;;5070704;28;20202;-66
2022/03/20 07:34:44;;;;;;;26.77;20.97;;;7.40;99.90;;;;;;5071396;28;20201;-65
2022/03/20 07:37:16;;;;;;;25.93;19.93;;;7.50;99.90;;;;;;5064664;28;20175;-65
2022/03/20 07:39:46;;;;;;;26.07;21.33;;;7.60;99.90;;;;;;5051880;28;20284;-66
2022/03/20 07:42:13;;;;;;;25.00;18.93;;;7.70;99.90;;;;;;5053344;28;20182;-65
2022/03/20 07:44:39;;;;;;;26.23;20.47;;;8.00;99.90;;;;;;5051152;28;20186;-65
2022/03/20 07:47:08;;;;;;;25.80;19.57;;;8.30;99.90;;;;;;5058261;28;20193;-65
2022/03/20 07:49:37;;;;;;;24.43;19.27;;;8.50;99.90;;;;;;5067565;28;20258;-65
2022/03/20 07:52:06;;;;;;;24.97;20.13;;;8.50;99.90;;;;;;5050877;28;20202;-65
2022/03/20 07:54:33;;;;;;;26.23;20.33;;;8.70;99.90;;;;;;5054284;28;20248;-65
2022/03/20 07:57:00;;;;;;;21.97;19.23;;;8.80;99.90;;;;;;5071946;28;20199;-65
2022/03/20 07:59:25;;;;;;;27.40;20.30;;;8.80;99.90;;;;;;5068586;28;20209;-65
2022/03/20 08:01:51;;;;;;;24.53;19.50;;;8.90;99.90;;;;;;5051803;28;20595;-65
2022/03/20 08:04:17;;;;;;;25.97;19.70;;;9.00;99.90;;;;;;5051605;28;20191;-66
2022/03/20 08:06:43;;;;;;;28.10;21.90;;;9.10;99.90;;;;;;5070612;28;20190;-65
2022/03/20 08:09:08;;;;;;;27.30;19.97;;;9.20;99.90;;;;;;5071948;28;20537;-66
2022/03/20 08:11:34;;;;;;;27.20;21.10;;;9.40;99.90;;;;;;5053137;28;20183;-66
2022/03/20 08:14:00;;;;;;;27.83;19.93;;;9.50;99.90;;;;;;5059395;28;20243;-66
2022/03/20 08:16:26;;;;;;;26.63;19.80;;;9.80;99.90;;;;;;5070025;28;20166;-67
2022/03/20 08:18:54;;;;;;;26.20;19.90;;;10.00;99.90;;;;;;5069386;28;20170;-66
2022/03/20 08:21:20;;;;;;;28.77;20.83;;;10.20;99.90;;;;;;5070226;28;20570;-66
2022/03/20 08:23:46;;;;;;;27.07;20.60;;;10.30;99.60;;;;;;5058336;28;20209;-63
2022/03/20 08:26:12;;;;;;;26.23;20.33;;;10.10;99.40;;;;;;5051419;28;20171;-65
2022/03/20 08:28:39;;;;;;;29.37;21.20;;;10.10;99.70;;;;;;5059841;28;20584;-66
2022/03/20 08:31:08;;;;;;;26.07;21.07;;;10.30;99.90;;;;;;5071557;28;20197;-65
2022/03/20 08:33:34;;;;;;;23.43;18.73;;;10.40;98.80;;;;;;5062193;28;20198;-66
2022/03/20 08:36:02;;;;;;;25.20;20.60;;;10.50;99.60;;;;;;5051162;28;20559;-66
2022/03/20 08:38:28;;;;;;;25.63;21.07;;;10.40;98.60;;;;;;5058544;28;20205;-65
2022/03/20 08:40:54;;;;;;;27.80;20.93;;;10.40;98.10;;;;;;5070290;28;20201;-66
2022/03/20 08:43:21;;;;;;;27.00;20.90;;;10.70;99.00;;;;;;5065371;28;20182;-65
2022/03/20 08:45:47;;;;;;;27.83;21.27;;;11.10;99.20;;;;;;5052506;28;20201;-65
2022/03/20 08:48:12;;;;;;;29.60;22.00;;;11.40;98.60;;;;;;5071437;28;20237;-65
2022/03/20 08:50:38;;;;;;;25.67;20.77;;;11.70;97.70;;;;;;5070234;28;20208;-66
2022/03/20 08:53:04;;;;;;;28.97;21.20;;;11.90;97.10;;;;;;5050964;28;20663;-65
2022/03/20 08:55:33;;;;;;;27.17;20.73;;;12.10;97.10;;;;;;5048759;28;20202;-65
2022/03/20 08:57:59;;;;;;;28.63;19.27;;;12.10;96.50;;;;;;5069444;28;20227;-66
2022/03/20 09:00:26;;;;;;;27.53;20.07;;;12.20;96.30;;;;;;5069810;28;20178;-67
2022/03/20 09:02:52;;;;;;;23.17;19.63;;;12.20;96.10;;;;;;5053270;28;20650;-66
2022/03/20 09:05:19;;;;;;;28.30;20.70;;;12.40;96.40;;;;;;5047214;28;20555;-66
2022/03/20 09:07:47;;;;;;;25.63;19.53;;;12.60;96.20;;;;;;5066926;28;20622;-66
2022/03/20 09:10:15;;;;;;;23.90;19.17;;;12.70;94.30;;;;;;5069729;28;20186;-65
2022/03/20 09:12:44;;;;;;;24.90;20.07;;;12.70;95.10;;;;;;5055799;28;20206;-66
2022/03/20 09:15:15;;;;;;;26.60;21.00;;;12.90;95.30;;;;;;5062028;28;20197;-66
2022/03/20 09:20:26;;;;;;;25.07;20.70;;;13.60;93.60;;;;;;5051132;28;20669;-65
2022/03/20 09:22:52;;;;;;;25.77;21.00;;;13.90;94.40;;;;;;5063270;28;20182;-66
2022/03/20 09:25:18;;;;;;;27.57;20.13;;;13.90;92.90;;;;;;5070708;28;20541;-65
2022/03/20 09:27:44;;;;;;;25.30;19.90;;;14.00;93.10;;;;;;5059742;28;20539;-64
2022/03/20 09:30:11;;;;;;;25.07;20.37;;;14.10;93.60;;;;;;5048565;28;20668;-64
2022/03/20 09:32:36;;;;;;;23.70;20.67;;;14.10;93.40;;;;;;5064078;28;20661;-65
2022/03/20 09:35:02;;;;;;;25.77;21.00;;;14.10;91.90;;;;;;5089824;28;20182;-64
2022/03/20 09:37:28;;;;;;;28.80;21.17;;;13.70;91.40;;;;;;5084024;28;20155;-64
2022/03/20 09:39:53;;;;;;;25.80;20.93;;;13.30;93.20;;;;;;5062022;28;20182;-64
2022/03/20 09:42:19;;;;;;;24.27;20.13;;;12.90;94.10;;;;;;5060235;28;20185;-65
2022/03/20 09:44:45;;;;;;;25.60;20.67;;;12.80;93.40;;;;;;5074089;28;20205;-66
2022/03/20 09:47:12;;;;;;;25.70;20.60;;;12.70;93.50;;;;;;5069884;28;20252;-65
2022/03/20 09:49:39;;;;;;;24.03;20.63;;;12.90;93.50;;;;;;5053935;28;20186;-64
2022/03/20 09:52:06;;;;;;;27.50;20.97;;;12.90;93.30;;;;;;5056268;28;20255;-64
2022/03/20 09:54:32;;;;;;;29.40;22.70;;;12.90;92.90;;;;;;5074527;28;20294;-65
2022/03/20 09:57:03;;;;;;;25.57;20.90;;;12.80;93.40;;;;;;5089105;28;20241;-66
2022/03/20 09:59:29;;;;;;;29.33;21.50;;;12.60;93.30;;;;;;5054213;28;20665;-66
2022/03/20 10:02:00;;;;;;;25.30;20.73;;;12.80;93.80;;;;;;5054127;28;20272;-65
2022/03/20 10:04:26;;;;;;;27.53;21.27;;;12.80;92.90;;;;;;5073853;28;20193;-64
2022/03/20 10:06:51;;;;;;;31.80;21.67;;;13.00;92.90;;;;;;5069577;28;20197;-64
2022/03/20 10:09:17;;;;;;;25.40;20.87;;;13.20;93.70;;;;;;5054029;28;20179;-65
2022/03/20 10:11:51;;;;;;;26.33;20.83;;;13.40;92.90;;;;;;5069056;28;20181;-66
2022/03/20 10:14:35;;;;;;;29.23;21.33;;;13.80;93.50;;;;;;5074035;28;20205;-66
2022/03/20 10:17:11;;;;;;;25.73;21.77;;;14.20;93.50;;;;;;5065931;28;20178;-67
2022/03/20 10:19:37;;;;;;;28.90;22.00;;;14.50;92.70;;;;;;5068602;28;20176;-65
2022/03/20 10:22:11;;;;;;;27.97;21.77;;;14.40;92.50;;;;;;5073564;28;20257;-66
2022/03/20 10:24:39;;;;;;;29.10;22.50;;;14.50;92.60;;;;;;5064321;28;20289;-68
2022/03/20 10:27:08;;;;;;;24.73;21.40;;;14.50;92.50;;;;;;5054049;28;20167;-65
2022/03/20 10:29:35;;;;;;;30.73;22.30;;;14.10;92.40;;;;;;5061079;28;20178;-66
2022/03/20 10:32:05;;;;;;;27.20;21.17;;;14.00;92.60;;;;;;5073602;28;20198;-66
2022/03/20 10:34:46;;;;;;;28.07;22.27;;;13.60;92.10;;;;;;5066620;28;20183;-66
2022/03/20 10:37:12;;;;;;;24.60;20.83;;;13.30;92.50;;;;;;5053768;28;20173;-65
2022/03/20 10:39:41;;;;;;;25.13;21.47;;;13.20;93.00;;;;;;5060598;28;20167;-64
2022/03/20 10:42:11;;;;;;;28.83;22.53;;;13.30;92.90;;;;;;5072310;28;20264;-67
2022/03/20 10:44:38;;;;;;;27.33;22.03;;;13.40;93.20;;;;;;5055106;28;20234;-66
2022/03/20 10:47:12;;;;;;;26.97;22.00;;;13.60;94.00;;;;;;5052888;28;20253;-66
2022/03/20 10:49:39;;;;;;;26.63;21.23;;;14.00;93.20;;;;;;5070413;28;20189;-66
2022/03/20 10:52:10;;;;;;;27.30;21.50;;;14.10;92.50;;;;;;5071009;28;20201;-65
2022/03/20 10:54:43;;;;;;;29.83;22.83;;;14.20;92.50;;;;;;5064804;28;20260;-65
2022/03/20 10:57:11;;;;;;;30.87;22.60;;;14.00;92.90;;;;;;5073066;28;20198;-65
2022/03/20 10:59:38;;;;;;;29.37;21.07;;;13.80;92.50;;;;;;5067085;28;20258;-66
2022/03/20 11:02:05;;;;;;;30.33;23.20;;;14.00;93.20;;;;;;5073484;28;20253;-66
2022/03/20 11:04:32;;;;;;;23.10;20.07;;;14.30;93.30;;;;;;5072752;28;20214;-65
2022/03/20 11:06:59;;;;;;;27.83;22.40;;;14.70;93.70;;;;;;5072656;28;20189;-65
2022/03/20 11:09:25;;;;;;;29.30;20.93;;;15.00;93.90;;;;;;5053738;28;20217;-67
2022/03/20 11:11:53;;;;;;;29.60;22.10;;;15.30;92.90;;;;;;5051108;28;20230;-64
2022/03/20 11:14:21;;;;;;;26.80;21.80;;;15.20;92.80;;;;;;5068034;28;20186;-65
2022/03/20 11:16:49;;;;;;;26.97;21.43;;;15.30;92.70;;;;;;5072125;28;20170;-66
2022/03/20 11:19:18;;;;;;;25.73;20.90;;;15.40;93.00;;;;;;5056852;28;20175;-66
2022/03/20 11:21:47;;;;;;;28.13;21.00;;;15.20;92.60;;;;;;5053539;28;20174;-66
2022/03/20 11:24:15;;;;;;;28.13;21.83;;;15.40;94.30;;;;;;5065629;28;20196;-66
2022/03/20 11:26:44;;;;;;;28.17;21.80;;;15.50;93.90;;;;;;5082989;28;20193;-66
2022/03/20 11:29:12;;;;;;;26.10;21.30;;;15.70;93.40;;;;;;5072316;28;20231;-65
2022/03/20 11:31:38;;;;;;;26.40;22.00;;;15.80;93.00;;;;;;5071977;28;20174;-66
2022/03/20 11:34:08;;;;;;;27.77;22.20;;;15.40;93.00;;;;;;5059769;28;20206;-66
2022/03/20 11:37:02;;;;;;;29.57;20.37;;;14.80;93.60;;;;;;5052179;28;20273;-65
2022/03/20 11:39:29;;;;;;;26.63;20.63;;;14.00;93.40;;;;;;5066204;28;20220;-65
2022/03/20 11:42:24;;;;;;;24.83;21.13;;;13.60;94.50;;;;;;5072311;28;20175;-67
2022/03/20 11:44:59;;;;;;;28.40;21.63;;;13.30;94.90;;;;;;5054922;28;20697;-66
2022/03/20 11:47:30;;;;;;;29.53;21.70;;;13.10;95.90;;;;;;5051595;28;20202;-66
2022/03/20 11:50:08;;;;;;;28.93;21.00;;;13.00;96.70;;;;;;5069153;28;20181;-65
2022/03/20 11:52:50;;;;;;;26.53;21.40;;;12.90;96.60;;;;;;5067342;28;20244;-68
2022/03/20 11:55:30;;;;;;;28.33;22.07;;;12.70;96.80;;;;;;5051700;28;20202;-66
2022/03/20 11:57:58;;;;;;;26.23;21.03;;;12.60;97.20;;;;;;5058596;28;20224;-65
2022/03/20 12:00:35;;;;;;;27.53;20.70;;;12.40;98.00;;;;;;5072057;28;20244;-65
2022/03/20 12:03:13;;;;;;;30.67;22.93;;;12.20;99.00;;;;;;5064492;28;20174;-66
2022/03/20 12:05:41;;;;;;;27.73;21.80;;;12.00;99.40;;;;;;5051118;28;20234;-65
2022/03/20 12:08:43;;;;;;;29.47;21.40;;;11.90;99.90;;;;;;5059045;28;20673;-66
2022/03/20 12:11:27;;;;;;;27.90;21.20;;;12.00;99.90;;;;;;5070840;28;20252;-65
2022/03/20 12:14:41;;;;;;;28.70;20.57;;;12.10;99.90;;;;;;5057763;28;20213;-66
2022/03/20 12:17:07;;;;;;;26.33;18.77;;;12.00;99.90;;;;;;5029393;28;20254;-67
2022/03/20 12:19:44;;;;;;;30.60;21.90;;;12.00;99.90;;;;;;5046573;28;20191;-66
2022/03/20 12:22:19;;;;;;;28.40;21.70;;;11.90;99.90;;;;;;5050150;28;20178;-67
2022/03/20 12:24:57;;;;;;;30.40;21.83;;;11.90;99.90;;;;;;5051059;28;20245;-66
2022/03/20 12:27:23;;;;;;;30.80;22.60;;;11.80;99.90;;;;;;5050184;28;20717;-66
2022/03/20 12:29:51;;;;;;;27.83;22.70;;;11.70;99.90;;;;;;5058798;28;20265;-67
2022/03/20 12:32:19;;;;;;;25.27;21.60;;;11.50;99.90;;;;;;5051512;28;20198;-66
2022/03/20 12:35:04;;;;;;;28.73;22.47;;;11.20;99.90;;;;;;5060867;28;20186;-66
2022/03/20 12:37:30;;;;;;;29.73;24.03;;;10.90;99.90;;;;;;5065250;28;20217;-67
2022/03/20 12:40:08;;;;;;;32.07;24.13;;;10.70;99.90;;;;;;5051734;28;20191;-66
2022/03/20 12:42:39;;;;;;;29.10;23.67;;;10.60;99.90;;;;;;5054253;28;20182;-65
2022/03/20 12:45:07;;;;;;;31.73;24.50;;;10.40;99.90;;;;;;5071330;28;20235;-67
2022/03/20 12:47:33;;;;;;;36.53;26.87;;;10.30;99.90;;;;;;5065832;28;20548;-67
2022/03/20 12:50:07;;;;;;;44.07;28.47;;;10.20;99.90;;;;;;5051476;28;20170;-67
2022/03/20 12:52:35;;;;;;;35.37;25.80;;;10.10;99.90;;;;;;5055341;28;20665;-66
2022/03/20 12:55:09;;;;;;;34.97;25.13;;;10.00;99.90;;;;;;5070688;28;20217;-68
2022/03/20 12:57:47;;;;;;;36.53;26.47;;;9.90;99.90;;;;;;5067340;28;20200;-66
2022/03/20 13:00:17;;;;;;;35.17;25.27;;;9.70;99.90;;;;;;5051744;28;20250;-67
2022/03/20 13:03:03;;;;;;;35.20;27.30;;;9.60;99.90;;;;;;5050146;28;20206;-66
2022/03/20 13:05:45;;;;;;;40.40;28.53;;;9.40;99.90;;;;;;5051394;28;20187;-66
2022/03/20 13:08:28;;;;;;;33.43;25.73;;;9.30;99.90;;;;;;5059536;28;20186;-66